National Weather Service Raw Text Product

Displaying AFOS PIL: TAFMCW Received: 2018-05-17 17:20 UTC


242 
FTUS43 KDMX 171720
TAFMCW
TAF
KMCW 171720Z 1718/1818 12005KT P6SM FEW250=